Ascanius — V7FS9 — position and weather

sailwx.info

Track history (hours):
 
Tides and Currents Weather Stations Pressure Air Temp Water Temp Dewpoint Dewpoint Depression Visibility Wind Speed Wind Dir Waves Ship Positions

Ascanius

Last reported at 2017-Jun-15 07:30 UTC. Time now 2017-Jun-26 15:36 UTC.
Position N 01°15' E 104°03'.
Warning: this ship's position is 11 days out of date.

Length 225 m; draft 12.8 m.

Type: Cargo ship. MMSI: 538002012.

Date/timePositionNaut miles runAvg speedWind from/ knotsBaromVisibWave heightAir tempDewpointWater temp
2017-Jun-15 07:30N 01°15' E 104°03'5 8.6
2017-Jun-15 06:58N 01°14' E 103°58'3 5.5
2017-Jun-15 06:30N 01°16' E 103°56'1 0.4
2017-Jun-15 04:18N 01°17' E 103°57'0 0.0
2017-Jun-15 03:57N 01°17' E 103°57'0 0.0
2017-Jun-15 02:12N 01°17' E 103°57'0 0.0
2017-Jun-15 01:54N 01°17' E 103°57'0 0.0
2017-Jun-15 01:24N 01°17' E 103°57'0 0.0
2017-Jun-15 00:57N 01°17' E 103°57'0 0.1
2017-Jun-15 00:15N 01°17' E 103°57'0 0.0
2017-Jun-14 21:57N 01°17' E 103°57'0 0.1
2017-Jun-14 21:24N 01°17' E 103°57'0 0.1
2017-Jun-14 20:45N 01°17' E 103°57'0 0.1
2017-Jun-14 20:24N 01°17' E 103°57'0 0.0
2017-Jun-14 19:48N 01°17' E 103°57'0 0.0
2017-Jun-14 19:18N 01°17' E 103°57'0 0.1
2017-Jun-14 18:57N 01°16' E 103°57'0 0.0
2017-Jun-14 18:27N 01°16' E 103°57'0 0.3
2017-Jun-14 17:45N 01°16' E 103°56'0 0.1
2017-Jun-14 16:00N 01°16' E 103°56'0 0.1
2017-Jun-14 15:30N 01°16' E 103°56'0 0.0
2017-Jun-14 15:00N 01°16' E 103°56'0 0.0
2017-Jun-14 14:30N 01°16' E 103°56'0 0.0
2017-Jun-14 13:18N 01°16' E 103°56'0 0.1
2017-Jun-14 12:51N 01°16' E 103°56'0 0.0
2017-Jun-14 11:39N 01°16' E 103°56'0 0.0
2017-Jun-14 11:27N 01°16' E 103°56'0 0.1
2017-Jun-14 10:41N 01°17' E 103°56'0 1.5
2017-Jun-14 10:30N 01°16' E 103°56'1 2.2
2017-Jun-14 10:00N 01°15' E 103°57'1 2.3
2017-Jun-14 09:28N 01°14' E 103°57'2 4.6
2017-Jun-14 08:55N 01°13' E 103°55'2 5.9
2017-Jun-14 08:30N 01°12' E 103°53'4 8.3
2017-Jun-14 08:00N 01°10' E 103°49'4 8.8
2017-Jun-14 07:30N 01°07' E 103°45'5 9.1
2017-Jun-14 07:00N 01°04' E 103°42'5 9.3
2017-Jun-14 06:30N 01°03' E 103°38'611.9
2017-Jun-14 06:00N 01°06' E 103°32'712.8
2017-Jun-14 05:27N 01°10' E 103°26'613.0
2017-Jun-14 04:58N 01°14' E 103°21'6312.1
2017-Jun-13 23:44N 01°47' E 102°27'911.0
2017-Jun-13 22:55N 01°51' E 102°19'  
Track history (hours):
 
Tides and Currents Weather Stations Pressure Air Temp Water Temp Dewpoint Dewpoint Depression Visibility Wind Speed Wind Dir Waves Ship Positions

Ascanius

Last reported at 2017-Jun-15 07:30 UTC. Time now 2017-Jun-26 15:36 UTC.
Position N 01°15' E 104°03'.
Warning: this ship's position is 11 days out of date.

Length 225 m; draft 12.8 m.

Type: Cargo ship. MMSI: 538002012.

Date/timePositionNaut miles runAvg speedWind from/ knotsBaromVisibWave heightAir tempDewpointWater temp
2017-Jun-15 07:30N 01°15' E 104°03'5 8.6
2017-Jun-15 06:58N 01°14' E 103°58'3 5.5
2017-Jun-15 06:30N 01°16' E 103°56'1 0.4
2017-Jun-15 04:18N 01°17' E 103°57'0 0.0
2017-Jun-15 03:57N 01°17' E 103°57'0 0.0
2017-Jun-15 02:12N 01°17' E 103°57'0 0.0
2017-Jun-15 01:54N 01°17' E 103°57'0 0.0
2017-Jun-15 01:24N 01°17' E 103°57'0 0.0
2017-Jun-15 00:57N 01°17' E 103°57'0 0.1
2017-Jun-15 00:15N 01°17' E 103°57'0 0.0
2017-Jun-14 21:57N 01°17' E 103°57'0 0.1
2017-Jun-14 21:24N 01°17' E 103°57'0 0.1
2017-Jun-14 20:45N 01°17' E 103°57'0 0.1
2017-Jun-14 20:24N 01°17' E 103°57'0 0.0
2017-Jun-14 19:48N 01°17' E 103°57'0 0.0
2017-Jun-14 19:18N 01°17' E 103°57'0 0.1
2017-Jun-14 18:57N 01°16' E 103°57'0 0.0
2017-Jun-14 18:27N 01°16' E 103°57'0 0.3
2017-Jun-14 17:45N 01°16' E 103°56'0 0.1
2017-Jun-14 16:00N 01°16' E 103°56'0 0.1
2017-Jun-14 15:30N 01°16' E 103°56'0 0.0
2017-Jun-14 15:00N 01°16' E 103°56'0 0.0
2017-Jun-14 14:30N 01°16' E 103°56'0 0.0
2017-Jun-14 13:18N 01°16' E 103°56'0 0.1
2017-Jun-14 12:51N 01°16' E 103°56'0 0.0
2017-Jun-14 11:39N 01°16' E 103°56'0 0.0
2017-Jun-14 11:27N 01°16' E 103°56'0 0.1
2017-Jun-14 10:41N 01°17' E 103°56'0 1.5
2017-Jun-14 10:30N 01°16' E 103°56'1 2.2
2017-Jun-14 10:00N 01°15' E 103°57'1 2.3
2017-Jun-14 09:28N 01°14' E 103°57'2 4.6
2017-Jun-14 08:55N 01°13' E 103°55'2 5.9
2017-Jun-14 08:30N 01°12' E 103°53'4 8.3
2017-Jun-14 08:00N 01°10' E 103°49'4 8.8
2017-Jun-14 07:30N 01°07' E 103°45'5 9.1
2017-Jun-14 07:00N 01°04' E 103°42'5 9.3
2017-Jun-14 06:30N 01°03' E 103°38'611.9
2017-Jun-14 06:00N 01°06' E 103°32'712.8
2017-Jun-14 05:27N 01°10' E 103°26'613.0
2017-Jun-14 04:58N 01°14' E 103°21'6312.1
2017-Jun-13 23:44N 01°47' E 102°27'911.0
2017-Jun-13 22:55N 01°51' E 102°19'  

Dump ship's entire track history